Time;durP1;ratioP1;P1;durP2;ratioP2;P2;SDS_P1;SDS_P2;PMS_P1;PMS_P2;Temp;Humidity;BMP_temperature;BMP_pressure;BME280_temperature;BME280_humidity;BME280_pressure;Samples;Min_cycle;Max_cycle;Signal;HPM_P1;HPM_P2
2023/05/31 00:02:25;;;;;;;10.93;4.67;;;11.20;99.90;;;;;;5116561;28;20357;-73
2023/05/31 00:04:50;;;;;;;8.80;3.50;;;11.20;99.90;;;;;;5098275;28;20127;-73
2023/05/31 00:07:16;;;;;;;8.07;3.30;;;11.20;99.90;;;;;;5116560;28;20047;-73
2023/05/31 00:09:42;;;;;;;5.93;3.40;;;11.20;99.90;;;;;;5116252;28;20039;-73
2023/05/31 00:12:08;;;;;;;10.73;3.90;;;11.20;99.90;;;;;;5081683;28;20141;-73
2023/05/31 00:14:34;;;;;;;8.70;3.83;;;11.20;99.90;;;;;;5098179;28;20052;-75
2023/05/31 00:16:59;;;;;;;6.77;3.23;;;11.20;99.90;;;;;;5116069;28;20281;-73
2023/05/31 00:19:25;;;;;;;6.37;3.43;;;11.20;99.90;;;;;;5098400;28;20039;-73
2023/05/31 00:21:51;;;;;;;8.97;4.00;;;11.20;99.90;;;;;;5096887;28;20487;-73
2023/05/31 00:24:17;;;;;;;7.63;3.77;;;11.20;99.90;;;;;;5097067;28;20122;-73
2023/05/31 00:26:43;;;;;;;7.33;3.40;;;11.20;99.90;;;;;;5114822;28;20132;-74
2023/05/31 00:29:08;;;;;;;7.60;3.70;;;11.20;99.90;;;;;;5096366;28;20044;-73
2023/05/31 00:31:34;;;;;;;7.77;3.80;;;11.20;99.90;;;;;;5096558;28;20043;-73
2023/05/31 00:34:00;;;;;;;7.70;3.53;;;11.20;99.90;;;;;;5115072;28;20044;-74
2023/05/31 00:36:25;;;;;;;7.03;3.67;;;11.20;99.90;;;;;;5096751;28;20043;-73
2023/05/31 00:38:51;;;;;;;7.30;3.13;;;11.20;99.90;;;;;;5096677;28;20499;-73
2023/05/31 00:41:17;;;;;;;7.20;3.33;;;11.20;99.90;;;;;;5096455;28;20096;-73
2023/05/31 00:43:43;;;;;;;7.60;4.03;;;11.20;99.90;;;;;;5114518;28;20047;-73
2023/05/31 00:46:19;;;;;;;7.97;3.37;;;11.20;99.90;;;;;;5114864;28;20047;-73
2023/05/31 00:48:45;;;;;;;7.57;3.50;;;11.20;99.90;;;;;;5114546;28;20269;-73
2023/05/31 00:51:12;;;;;;;9.40;4.73;;;11.20;99.90;;;;;;5097021;28;20602;-73
2023/05/31 00:53:39;;;;;;;7.60;3.77;;;11.20;99.90;;;;;;5114571;28;20051;-75
2023/05/31 00:56:05;;;;;;;7.57;3.40;;;11.20;99.90;;;;;;5114562;28;20311;-72
2023/05/31 00:58:34;;;;;;;9.77;3.63;;;11.20;99.90;;;;;;5096282;28;20315;-72
2023/05/31 01:01:00;;;;;;;6.73;3.37;;;11.20;99.90;;;;;;5114160;28;20296;-73
2023/05/31 01:03:26;;;;;;;6.70;3.10;;;11.20;99.90;;;;;;5096488;28;20281;-72
2023/05/31 01:05:52;;;;;;;7.67;3.30;;;11.10;99.90;;;;;;5096125;28;20745;-73
2023/05/31 01:08:18;;;;;;;7.80;3.50;;;11.10;99.90;;;;;;5114525;28;20059;-73
2023/05/31 01:10:44;;;;;;;7.27;3.27;;;11.10;99.90;;;;;;5114055;28;20144;-73
2023/05/31 01:13:44;;;;;;;8.57;3.70;;;11.00;99.90;;;;;;5114300;28;20281;-73
2023/05/31 01:16:23;;;;;;;8.10;3.13;;;11.00;99.90;;;;;;5094585;28;20781;-73
2023/05/31 01:19:05;;;;;;;7.13;3.53;;;11.00;99.90;;;;;;5114081;28;20349;-73
2023/05/31 01:21:57;;;;;;;7.20;3.13;;;11.00;99.90;;;;;;5043059;28;1144199;-73
2023/05/31 01:24:34;;;;;;;7.03;3.97;;;10.90;99.90;;;;;;5074097;28;20072;-73
2023/05/31 01:27:01;;;;;;;8.67;3.60;;;10.90;99.90;;;;;;5074240;28;20279;-73
2023/05/31 01:29:30;;;;;;;13.63;4.83;;;10.90;99.90;;;;;;5074168;28;20774;-73
2023/05/31 01:31:59;;;;;;;9.63;3.70;;;10.90;99.90;;;;;;5074080;28;20271;-73
2023/05/31 01:34:25;;;;;;;8.47;3.60;;;10.80;99.90;;;;;;5074373;28;20283;-73
2023/05/31 01:36:51;;;;;;;9.97;4.20;;;10.80;99.90;;;;;;5073920;28;20636;-73
2023/05/31 01:39:19;;;;;;;8.87;4.20;;;10.80;99.90;;;;;;5074409;28;20504;-73
2023/05/31 01:41:46;;;;;;;10.13;3.83;;;10.80;99.90;;;;;;5071923;28;20047;-73
2023/05/31 01:44:15;;;;;;;8.23;4.43;;;10.70;99.90;;;;;;5074122;28;20283;-73
2023/05/31 01:46:42;;;;;;;8.60;3.73;;;10.80;99.90;;;;;;5072961;28;20670;-73
2023/05/31 01:49:10;;;;;;;8.97;3.93;;;10.70;99.90;;;;;;5072741;28;20767;-73
2023/05/31 01:51:37;;;;;;;13.10;4.80;;;10.70;99.90;;;;;;5074106;28;20279;-73
2023/05/31 01:54:03;;;;;;;7.47;3.70;;;10.70;99.90;;;;;;5073668;28;20282;-73
2023/05/31 01:56:31;;;;;;;8.40;4.50;;;10.70;99.90;;;;;;5072779;28;20275;-73
2023/05/31 01:58:58;;;;;;;11.17;4.50;;;10.70;99.90;;;;;;5072306;28;20340;-73
2023/05/31 02:01:24;;;;;;;9.90;4.33;;;10.70;99.90;;;;;;5073703;28;20291;-72
2023/05/31 02:03:51;;;;;;;10.73;4.20;;;10.60;99.90;;;;;;5073422;28;20332;-73
2023/05/31 02:06:17;;;;;;;9.00;4.27;;;10.60;99.90;;;;;;5073706;28;20088;-72
2023/05/31 02:08:43;;;;;;;11.23;4.93;;;10.60;99.90;;;;;;5073664;28;20318;-73
2023/05/31 02:11:09;;;;;;;7.87;4.30;;;10.60;99.90;;;;;;5073312;28;20052;-73
2023/05/31 02:13:35;;;;;;;12.37;4.90;;;10.60;99.90;;;;;;5055901;28;20351;-73
2023/05/31 02:16:03;;;;;;;11.80;4.40;;;10.50;99.90;;;;;;5055678;28;20044;-73
2023/05/31 02:18:30;;;;;;;9.83;5.23;;;10.50;99.90;;;;;;5073278;28;20763;-73
2023/05/31 02:20:56;;;;;;;9.60;5.23;;;10.40;99.90;;;;;;5082475;28;20324;-73
2023/05/31 02:23:22;;;;;;;11.70;5.33;;;10.40;99.90;;;;;;5113963;28;20281;-73
2023/05/31 02:25:48;;;;;;;12.17;4.93;;;10.40;99.90;;;;;;5095721;28;20088;-74
2023/05/31 02:28:15;;;;;;;8.93;5.10;;;10.40;99.90;;;;;;5095781;28;20099;-73
2023/05/31 02:30:41;;;;;;;13.07;5.17;;;10.40;99.90;;;;;;5095710;28;20282;-73
2023/05/31 02:33:08;;;;;;;11.27;5.23;;;10.40;99.90;;;;;;5113560;28;20281;-73
2023/05/31 02:35:34;;;;;;;8.00;4.40;;;10.30;99.90;;;;;;5113730;28;20322;-73
2023/05/31 02:38:00;;;;;;;12.67;5.67;;;10.30;99.90;;;;;;5113488;28;20277;-73
2023/05/31 02:40:26;;;;;;;13.57;6.93;;;10.30;99.90;;;;;;5095509;28;20474;-73
2023/05/31 02:42:52;;;;;;;13.27;6.10;;;10.20;99.90;;;;;;5113414;28;20313;-73
2023/05/31 02:45:18;;;;;;;10.87;5.70;;;10.20;99.90;;;;;;5095818;28;20048;-73
2023/05/31 02:47:44;;;;;;;14.57;6.20;;;10.20;99.90;;;;;;5095504;28;20043;-73
2023/05/31 02:50:10;;;;;;;14.57;6.63;;;10.20;99.90;;;;;;5095438;28;20884;-73
2023/05/31 02:52:37;;;;;;;10.07;5.67;;;10.10;99.90;;;;;;5113470;28;20120;-73
2023/05/31 02:55:03;;;;;;;12.47;6.33;;;10.10;99.90;;;;;;5113176;28;20281;-73
2023/05/31 02:57:29;;;;;;;12.07;5.90;;;10.10;99.90;;;;;;5079140;28;20289;-73
2023/05/31 02:59:57;;;;;;;10.70;5.53;;;10.10;99.90;;;;;;5078454;28;20362;-73
2023/05/31 03:02:22;;;;;;;13.40;6.23;;;10.10;99.90;;;;;;5095258;28;20127;-73
2023/05/31 03:04:48;;;;;;;12.93;5.83;;;10.10;99.90;;;;;;5095484;28;20364;-73
2023/05/31 03:07:14;;;;;;;11.60;6.00;;;10.00;99.90;;;;;;5113214;28;20090;-73
2023/05/31 03:09:40;;;;;;;13.77;5.67;;;10.00;99.90;;;;;;5113313;28;20054;-73
2023/05/31 03:12:06;;;;;;;11.37;6.00;;;10.00;99.90;;;;;;5113069;28;20277;-73
2023/05/31 03:14:32;;;;;;;11.93;5.67;;;10.00;99.90;;;;;;5078637;28;20107;-73
2023/05/31 03:16:58;;;;;;;11.07;5.70;;;10.00;99.90;;;;;;5094918;28;20281;-73
2023/05/31 03:19:23;;;;;;;14.50;6.03;;;10.00;99.90;;;;;;5095644;28;20050;-73
2023/05/31 03:21:49;;;;;;;11.37;6.17;;;10.00;99.90;;;;;;5094613;28;20483;-73
2023/05/31 03:24:15;;;;;;;10.47;6.23;;;9.90;99.90;;;;;;5095025;28;20056;-73
2023/05/31 03:26:41;;;;;;;16.40;6.77;;;9.90;99.90;;;;;;5113324;28;20047;-73
2023/05/31 03:29:06;;;;;;;9.47;5.83;;;9.90;99.90;;;;;;5078188;28;20047;-73
2023/05/31 03:31:32;;;;;;;12.30;6.53;;;9.90;99.90;;;;;;5113481;28;20387;-73
2023/05/31 03:33:58;;;;;;;12.10;7.47;;;9.90;99.90;;;;;;5094943;28;20130;-73
2023/05/31 03:36:24;;;;;;;11.30;6.07;;;9.90;99.90;;;;;;5113138;28;20073;-73
2023/05/31 03:38:50;;;;;;;10.87;5.83;;;10.00;99.90;;;;;;5113109;28;20810;-73
2023/05/31 03:41:16;;;;;;;12.10;6.00;;;9.90;99.90;;;;;;5094674;28;20502;-73
2023/05/31 03:43:42;;;;;;;10.27;6.37;;;10.00;99.90;;;;;;5113461;28;20131;-73
2023/05/31 03:46:07;;;;;;;10.57;6.13;;;10.00;99.90;;;;;;5112844;28;20039;-73
2023/05/31 03:48:33;;;;;;;11.13;5.70;;;10.00;99.90;;;;;;5094935;28;20156;-73
2023/05/31 03:50:59;;;;;;;12.20;6.83;;;10.10;99.90;;;;;;5112691;28;20047;-74
2023/05/31 03:53:25;;;;;;;13.13;6.07;;;10.10;99.90;;;;;;5078068;28;20051;-73
2023/05/31 03:55:51;;;;;;;12.90;6.30;;;10.10;99.90;;;;;;5112999;28;20434;-74
2023/05/31 03:58:17;;;;;;;12.87;7.27;;;10.10;99.90;;;;;;5077788;28;20735;-73
2023/05/31 04:00:43;;;;;;;11.10;6.00;;;10.10;99.90;;;;;;5113088;28;20399;-74
2023/05/31 04:03:11;;;;;;;16.40;7.07;;;10.20;99.90;;;;;;5112757;28;20281;-74
2023/05/31 04:05:38;;;;;;;10.33;6.60;;;10.10;99.90;;;;;;5097334;28;20048;-73
2023/05/31 04:08:04;;;;;;;13.13;7.00;;;10.20;99.90;;;;;;5116391;28;20284;-74
2023/05/31 04:10:30;;;;;;;10.37;6.70;;;10.20;99.90;;;;;;5116678;28;20285;-74
2023/05/31 04:12:56;;;;;;;12.37;7.07;;;10.20;99.90;;;;;;5116525;28;20342;-73
2023/05/31 04:15:22;;;;;;;14.73;7.57;;;10.20;99.90;;;;;;5097954;28;20349;-73
2023/05/31 04:17:48;;;;;;;16.13;7.93;;;10.20;99.90;;;;;;5116618;28;20043;-74
2023/05/31 04:20:14;;;;;;;12.37;7.00;;;10.20;99.90;;;;;;5116009;28;20281;-74
2023/05/31 04:22:39;;;;;;;13.37;6.90;;;10.30;99.90;;;;;;5116405;28;20421;-73
2023/05/31 04:25:06;;;;;;;15.00;7.37;;;10.30;99.90;;;;;;5098041;28;20048;-73
2023/05/31 04:27:32;;;;;;;12.83;6.63;;;10.30;99.90;;;;;;5098102;28;20561;-73
2023/05/31 04:30:00;;;;;;;15.00;7.23;;;10.40;99.90;;;;;;5116162;28;20288;-73
2023/05/31 04:32:27;;;;;;;13.13;8.10;;;10.40;99.90;;;;;;5098187;28;20293;-73
2023/05/31 04:34:57;;;;;;;16.33;7.53;;;10.40;99.90;;;;;;5116184;28;20277;-73
2023/05/31 04:37:29;;;;;;;14.57;7.07;;;10.50;99.90;;;;;;5097822;28;20304;-73
2023/05/31 04:39:58;;;;;;;14.00;7.33;;;10.60;99.90;;;;;;5115953;28;20745;-73
2023/05/31 04:42:25;;;;;;;12.13;7.00;;;10.60;99.90;;;;;;5115599;28;20296;-73
2023/05/31 04:44:55;;;;;;;14.47;7.33;;;10.80;99.90;;;;;;5115941;28;20330;-73
2023/05/31 04:47:21;;;;;;;13.07;7.17;;;10.90;99.90;;;;;;5097683;28;20290;-73
2023/05/31 04:49:47;;;;;;;11.30;7.27;;;11.00;99.90;;;;;;5097834;28;20296;-73
2023/05/31 04:52:14;;;;;;;13.67;6.60;;;11.10;99.90;;;;;;5115430;28;20104;-73
2023/05/31 04:54:40;;;;;;;14.03;7.13;;;11.20;99.90;;;;;;5097959;28;20074;-73
2023/05/31 04:57:06;;;;;;;13.07;6.50;;;11.30;99.90;;;;;;5097460;28;20354;-74
2023/05/31 04:59:32;;;;;;;19.90;8.33;;;11.40;99.90;;;;;;5115599;28;20682;-73
2023/05/31 05:01:58;;;;;;;14.03;6.63;;;11.50;99.90;;;;;;5115518;28;20126;-73
2023/05/31 05:04:23;;;;;;;12.37;6.33;;;11.70;99.90;;;;;;5115311;28;20101;-73
2023/05/31 05:06:49;;;;;;;12.50;6.40;;;11.80;99.90;;;;;;5115535;28;20051;-73
2023/05/31 05:09:15;;;;;;;10.80;6.53;;;11.90;99.90;;;;;;5097106;28;20528;-73
2023/05/31 05:11:40;;;;;;;14.07;6.17;;;12.10;99.90;;;;;;5097121;28;20172;-73
2023/05/31 05:14:06;;;;;;;17.60;6.30;;;12.20;99.90;;;;;;5115090;28;20542;-74
2023/05/31 05:16:32;;;;;;;14.23;6.43;;;12.30;99.90;;;;;;5113802;28;20134;-73
2023/05/31 05:18:57;;;;;;;13.10;7.40;;;12.50;99.90;;;;;;5115308;28;20163;-73
2023/05/31 05:21:23;;;;;;;16.73;6.33;;;12.60;99.90;;;;;;5114562;28;20066;-74
2023/05/31 05:23:49;;;;;;;10.93;5.53;;;12.80;99.90;;;;;;5115326;28;20048;-73
2023/05/31 05:26:15;;;;;;;15.80;6.33;;;12.90;99.90;;;;;;5114859;28;20060;-74
2023/05/31 05:28:41;;;;;;;12.10;6.07;;;13.10;99.90;;;;;;5096851;28;20040;-73
2023/05/31 05:31:07;;;;;;;11.20;6.13;;;13.20;99.90;;;;;;5115227;28;20277;-73
2023/05/31 05:33:33;;;;;;;15.20;6.37;;;13.30;99.90;;;;;;5114916;28;20126;-73
2023/05/31 05:35:59;;;;;;;15.53;7.03;;;13.50;99.90;;;;;;5114660;28;20395;-73
2023/05/31 05:38:24;;;;;;;15.00;6.20;;;13.60;99.90;;;;;;5096712;28;20293;-74
2023/05/31 05:40:50;;;;;;;13.87;6.20;;;13.80;99.90;;;;;;5096758;28;20044;-73
2023/05/31 05:43:16;;;;;;;15.77;6.77;;;14.00;99.90;;;;;;5096470;28;20043;-74
2023/05/31 05:45:42;;;;;;;12.53;6.30;;;14.20;99.90;;;;;;5114689;28;20487;-73
2023/05/31 05:48:08;;;;;;;14.73;5.80;;;14.80;99.90;;;;;;5114785;28;20129;-73
2023/05/31 05:50:33;;;;;;;14.87;5.13;;;16.00;99.90;;;;;;5114337;28;20326;-73
2023/05/31 05:52:59;;;;;;;13.93;5.40;;;17.30;99.90;;;;;;5114670;28;20048;-73
2023/05/31 05:55:25;;;;;;;13.97;6.17;;;18.40;99.90;;;;;;5096084;28;20035;-74
2023/05/31 05:57:51;;;;;;;14.23;6.43;;;19.10;99.90;;;;;;5114469;28;20048;-73
2023/05/31 06:00:17;;;;;;;10.90;5.17;;;19.30;99.90;;;;;;5114222;28;20130;-73
2023/05/31 06:02:43;;;;;;;12.83;5.77;;;19.70;99.90;;;;;;5114613;28;20047;-73
2023/05/31 06:05:09;;;;;;;11.67;5.40;;;19.90;99.90;;;;;;5114549;28;20050;-73
2023/05/31 06:07:35;;;;;;;11.50;4.97;;;20.00;99.90;;;;;;5113980;28;20110;-74
2023/05/31 06:10:02;;;;;;;11.60;5.07;;;20.40;99.90;;;;;;5079243;28;20127;-73
2023/05/31 06:12:30;;;;;;;12.73;5.30;;;20.90;99.90;;;;;;5113986;28;20112;-73
2023/05/31 06:14:55;;;;;;;12.00;5.30;;;21.40;99.90;;;;;;5096281;28;20120;-73
2023/05/31 06:17:21;;;;;;;11.10;5.40;;;21.60;99.90;;;;;;5096144;28;20535;-74
2023/05/31 06:19:47;;;;;;;12.10;5.67;;;21.60;99.90;;;;;;5114389;28;20051;-73
2023/05/31 06:22:13;;;;;;;10.33;5.20;;;22.00;99.90;;;;;;5113375;28;20055;-75
2023/05/31 06:24:40;;;;;;;12.40;5.57;;;22.70;99.90;;;;;;5114092;28;20097;-73
2023/05/31 06:27:06;;;;;;;12.43;5.33;;;23.20;99.90;;;;;;5113636;28;20046;-73
2023/05/31 06:29:32;;;;;;;9.40;5.10;;;23.40;99.90;;;;;;5095746;28;20047;-74
2023/05/31 06:31:58;;;;;;;11.80;5.67;;;23.80;97.90;;;;;;5095963;28;20051;-74
2023/05/31 06:34:24;;;;;;;9.53;5.30;;;24.00;94.90;;;;;;5113586;28;20083;-74
2023/05/31 06:36:49;;;;;;;11.10;5.23;;;24.50;92.40;;;;;;5113847;28;20391;-73
2023/05/31 06:39:15;;;;;;;7.80;4.97;;;24.70;87.80;;;;;;5113494;28;20066;-75
2023/05/31 06:41:41;;;;;;;9.53;4.83;;;25.30;83.40;;;;;;5113048;28;20039;-74
2023/05/31 06:44:06;;;;;;;10.13;5.13;;;25.60;80.10;;;;;;5113787;28;20048;-74
2023/05/31 06:46:32;;;;;;;7.63;4.00;;;25.90;66.30;;;;;;5113433;28;20066;-73
2023/05/31 06:48:58;;;;;;;8.30;4.97;;;25.70;65.70;;;;;;5095418;28;20473;-73
2023/05/31 06:51:24;;;;;;;9.40;5.10;;;25.50;62.90;;;;;;5095377;28;20047;-73
2023/05/31 06:53:50;;;;;;;9.23;4.90;;;25.50;61.90;;;;;;5113727;28;20480;-73
2023/05/31 06:56:15;;;;;;;8.90;4.70;;;25.30;63.10;;;;;;5095473;28;20052;-73
2023/05/31 06:58:42;;;;;;;10.73;4.87;;;25.40;63.30;;;;;;5113263;28;20047;-73
2023/05/31 07:01:08;;;;;;;9.40;4.20;;;25.40;63.80;;;;;;5095323;28;20044;-74
2023/05/31 07:03:34;;;;;;;9.50;4.27;;;25.80;63.30;;;;;;5113322;28;20047;-70
2023/05/31 07:06:00;;;;;;;8.37;4.43;;;26.10;61.50;;;;;;5113426;28;20393;-72
2023/05/31 07:08:26;;;;;;;8.47;4.10;;;26.10;59.10;;;;;;5113087;28;20065;-73
2023/05/31 07:10:52;;;;;;;8.87;3.73;;;26.70;59.70;;;;;;5113677;28;20043;-73
2023/05/31 07:13:18;;;;;;;10.80;4.00;;;26.40;57.40;;;;;;5113172;28;20112;-76
2023/05/31 07:15:44;;;;;;;8.60;4.10;;;26.50;57.50;;;;;;5113605;28;20051;-73
2023/05/31 07:18:10;;;;;;;8.83;4.03;;;27.30;57.00;;;;;;5095391;28;20042;-74
2023/05/31 07:20:35;;;;;;;8.13;3.80;;;27.20;55.40;;;;;;5113053;28;20082;-74
2023/05/31 07:23:01;;;;;;;9.03;3.87;;;27.80;54.10;;;;;;5112850;28;20055;-73
2023/05/31 07:25:27;;;;;;;9.27;4.05;;;28.00;53.70;;;;;;5112981;28;20058;-74
2023/05/31 07:27:53;;;;;;;6.78;3.42;;;27.90;51.90;;;;;;5095427;28;20514;-74
2023/05/31 07:30:19;;;;;;;8.38;3.97;;;27.90;52.10;;;;;;5113423;28;20566;-74
2023/05/31 07:32:45;;;;;;;8.10;3.45;;;27.70;52.10;;;;;;5094791;28;20039;-74
2023/05/31 07:35:10;;;;;;;8.50;3.92;;;28.00;51.90;;;;;;5095215;28;20443;-74
2023/05/31 07:37:36;;;;;;;6.88;3.45;;;28.20;50.50;;;;;;5094863;28;20048;-75
2023/05/31 07:40:04;;;;;;;7.60;4.22;;;28.30;51.00;;;;;;5096925;28;20043;-74
2023/05/31 07:42:31;;;;;;;7.25;3.42;;;28.10;50.70;;;;;;5116889;28;20043;-74
2023/05/31 07:44:57;;;;;;;9.45;4.10;;;27.80;50.60;;;;;;5099325;28;20048;-74
2023/05/31 07:47:23;;;;;;;8.20;3.58;;;27.80;50.50;;;;;;5116852;28;20380;-74
2023/05/31 07:49:51;;;;;;;6.65;3.25;;;27.80;50.10;;;;;;5116991;28;20093;-75
2023/05/31 07:52:21;;;;;;;6.40;3.20;;;27.80;50.20;;;;;;5117146;28;20380;-73
2023/05/31 07:54:48;;;;;;;6.50;3.95;;;27.80;50.50;;;;;;5116726;28;20048;-74
2023/05/31 07:57:15;;;;;;;9.10;3.33;;;28.40;49.80;;;;;;5098927;28;20046;-74
2023/05/31 07:59:41;;;;;;;7.53;3.10;;;29.10;49.70;;;;;;5116549;28;20075;-74
2023/05/31 08:02:06;;;;;;;7.30;3.30;;;29.40;47.40;;;;;;5116860;28;20514;-74
2023/05/31 08:04:32;;;;;;;6.97;2.92;;;29.20;48.10;;;;;;5116499;28;20046;-73
2023/05/31 08:06:58;;;;;;;6.32;3.05;;;29.30;47.80;;;;;;5098666;28;20093;-74
2023/05/31 08:09:23;;;;;;;5.80;2.67;;;28.90;47.90;;;;;;5098552;28;20048;-73
2023/05/31 08:11:49;;;;;;;5.45;2.72;;;29.20;48.10;;;;;;5116562;28;20039;-74
2023/05/31 08:14:15;;;;;;;6.13;2.75;;;28.80;47.70;;;;;;5116745;28;20044;-73
2023/05/31 08:16:40;;;;;;;6.22;2.85;;;28.50;48.20;;;;;;5116254;28;20344;-74
2023/05/31 08:19:06;;;;;;;5.82;3.25;;;28.00;48.60;;;;;;5081831;28;20131;-71
2023/05/31 08:21:32;;;;;;;8.02;3.22;;;28.20;48.30;;;;;;5115911;28;20051;-70
2023/05/31 08:23:58;;;;;;;6.72;2.78;;;27.90;48.70;;;;;;5116433;28;20153;-74
2023/05/31 08:26:25;;;;;;;5.90;2.83;;;27.80;49.20;;;;;;5098246;28;20044;-74
2023/05/31 08:28:51;;;;;;;5.75;2.85;;;27.60;49.90;;;;;;5116271;28;20047;-73
2023/05/31 08:31:17;;;;;;;7.30;3.30;;;27.70;50.90;;;;;;5116451;28;20040;-73
2023/05/31 08:33:59;;;;;;;8.38;3.22;;;27.80;50.00;;;;;;5115983;28;20051;-74
2023/05/31 08:36:26;;;;;;;6.57;3.33;;;27.80;49.40;;;;;;5116223;28;20115;-72
2023/05/31 08:38:52;;;;;;;6.65;2.97;;;27.70;50.00;;;;;;5115603;28;20491;-72
2023/05/31 08:41:18;;;;;;;8.88;3.33;;;27.40;50.40;;;;;;5115985;28;20046;-72
2023/05/31 08:43:46;;;;;;;8.82;4.05;;;26.70;51.30;;;;;;5115787;28;20043;-71
2023/05/31 08:46:14;;;;;;;9.13;3.60;;;26.00;52.00;;;;;;5097343;28;20047;-73
2023/05/31 08:48:45;;;;;;;8.57;4.07;;;25.40;52.90;;;;;;5097626;28;20061;-72
2023/05/31 08:51:13;;;;;;;8.25;3.13;;;24.80;54.40;;;;;;5080404;28;20054;-72
2023/05/31 08:53:41;;;;;;;7.47;3.30;;;24.70;55.00;;;;;;5115335;28;20043;-72
2023/05/31 08:56:08;;;;;;;8.73;3.38;;;24.20;56.70;;;;;;5097834;28;20130;-73
2023/05/31 08:58:35;;;;;;;8.15;3.35;;;24.20;57.90;;;;;;5115525;28;20152;-72
2023/05/31 09:01:03;;;;;;;9.60;3.35;;;23.60;60.50;;;;;;5097554;28;20048;-72
2023/05/31 09:03:30;;;;;;;10.73;3.70;;;23.40;65.00;;;;;;5097393;28;20128;-73
2023/05/31 09:05:56;;;;;;;8.33;3.27;;;23.00;69.90;;;;;;5115626;28;20048;-72
2023/05/31 09:08:23;;;;;;;10.07;3.47;;;22.80;78.60;;;;;;5080775;28;20047;-72
2023/05/31 09:10:49;;;;;;;8.13;3.20;;;22.50;80.40;;;;;;5096826;28;20075;-72
2023/05/31 09:13:15;;;;;;;11.17;3.73;;;22.60;85.70;;;;;;5115021;28;20390;-72
2023/05/31 09:15:43;;;;;;;12.27;3.60;;;22.40;87.00;;;;;;5114812;28;20527;-72
2023/05/31 09:18:18;;;;;;;9.43;3.20;;;22.10;90.00;;;;;;5114642;28;20111;-72
2023/05/31 09:20:46;;;;;;;12.87;3.20;;;21.70;94.40;;;;;;5112107;28;20175;-72
2023/05/31 09:23:12;;;;;;;9.33;3.63;;;21.70;94.20;;;;;;5114928;28;20126;-72
2023/05/31 09:25:52;;;;;;;11.47;3.53;;;21.60;95.90;;;;;;5114894;28;20462;-72
2023/05/31 09:28:22;;;;;;;9.03;3.87;;;21.40;97.10;;;;;;5115297;28;20045;-72
2023/05/31 09:31:07;;;;;;;13.13;3.77;;;21.30;97.90;;;;;;5096569;28;20052;-72
2023/05/31 09:33:41;;;;;;;11.60;3.93;;;21.30;98.30;;;;;;5097033;28;20050;-74
2023/05/31 09:36:08;;;;;;;9.82;4.15;;;21.10;99.70;;;;;;5115042;28;20057;-72
2023/05/31 09:38:35;;;;;;;10.37;3.20;;;21.00;99.40;;;;;;5080025;28;20103;-74
2023/05/31 09:41:15;;;;;;;7.83;3.40;;;21.00;99.60;;;;;;5097062;28;20043;-72
2023/05/31 09:43:46;;;;;;;8.40;3.20;;;21.20;99.90;;;;;;5114770;28;20043;-72
2023/05/31 09:46:22;;;;;;;9.73;4.07;;;21.20;99.80;;;;;;5114877;28;20094;-71
2023/05/31 09:49:09;;;;;;;9.23;3.90;;;21.00;99.90;;;;;;5096256;28;20096;-69
2023/05/31 09:51:36;;;;;;;9.40;3.60;;;21.00;99.90;;;;;;5114757;28;20455;-73
2023/05/31 09:54:14;;;;;;;11.53;3.70;;;20.80;99.90;;;;;;5114634;28;20560;-72
2023/05/31 09:56:41;;;;;;;10.37;4.50;;;20.80;99.90;;;;;;5114090;28;20043;-72
2023/05/31 09:59:07;;;;;;;12.97;3.77;;;20.60;99.90;;;;;;5114534;28;20555;-72
2023/05/31 10:01:35;;;;;;;9.20;3.83;;;20.50;99.90;;;;;;5114374;28;20057;-72
2023/05/31 10:04:03;;;;;;;10.20;3.97;;;20.20;99.90;;;;;;5113893;28;20047;-72
2023/05/31 10:06:34;;;;;;;10.00;3.63;;;20.30;99.90;;;;;;5079340;28;20487;-72
2023/05/31 10:09:07;;;;;;;10.90;4.00;;;20.20;99.90;;;;;;5114145;28;20047;-72
2023/05/31 10:11:41;;;;;;;11.13;4.67;;;20.20;99.90;;;;;;5114444;28;20112;-72
2023/05/31 10:14:38;;;;;;;10.98;4.63;;;20.10;99.90;;;;;;5114544;28;20498;-72
2023/05/31 10:17:05;;;;;;;12.50;4.27;;;19.80;99.90;;;;;;5114377;28;20047;-73
2023/05/31 10:19:44;;;;;;;8.53;3.90;;;19.60;99.90;;;;;;5095747;28;20487;-72
2023/05/31 10:22:11;;;;;;;9.63;4.87;;;19.70;99.90;;;;;;5113990;28;20134;-72
2023/05/31 10:24:44;;;;;;;10.27;5.03;;;19.60;99.90;;;;;;5114114;28;20047;-72
2023/05/31 10:27:31;;;;;;;15.40;5.13;;;19.40;99.90;;;;;;5114178;28;20044;-83
2023/05/31 10:30:04;;;;;;;10.00;4.40;;;19.20;99.90;;;;;;5095798;28;20044;-72
2023/05/31 10:32:33;;;;;;;8.73;4.90;;;19.00;99.90;;;;;;5114111;28;20042;-70
2023/05/31 10:35:00;;;;;;;9.93;4.80;;;19.00;99.90;;;;;;5113644;28;20258;-67
2023/05/31 10:37:26;;;;;;;8.60;4.73;;;19.00;99.90;;;;;;5113850;28;20043;-68
2023/05/31 10:40:14;;;;;;;8.73;4.13;;;18.90;99.90;;;;;;5113577;28;20048;-71
2023/05/31 10:42:56;;;;;;;14.10;5.03;;;18.90;99.90;;;;;;5113609;28;20054;-71
2023/05/31 10:45:33;;;;;;;12.47;5.33;;;18.90;99.90;;;;;;5113811;28;20048;-72
2023/05/31 10:48:22;;;;;;;11.67;5.63;;;18.80;99.90;;;;;;5113617;28;20118;-73
2023/05/31 10:50:57;;;;;;;10.27;5.00;;;18.80;99.90;;;;;;5099766;28;20058;-73
2023/05/31 10:53:31;;;;;;;10.23;4.53;;;18.90;99.90;;;;;;5095538;28;20054;-73
2023/05/31 10:56:05;;;;;;;9.90;4.83;;;19.00;99.90;;;;;;5095453;28;20051;-73
2023/05/31 10:58:36;;;;;;;10.77;4.95;;;18.90;99.90;;;;;;5095614;28;20062;-73
2023/05/31 11:01:05;;;;;;;11.63;5.03;;;18.90;99.90;;;;;;5113318;28;20796;-75
2023/05/31 11:03:33;;;;;;;13.03;5.57;;;18.90;99.90;;;;;;5113524;28;20047;-70
2023/05/31 11:06:06;;;;;;;13.17;4.90;;;18.80;99.90;;;;;;5112945;28;20399;-72
2023/05/31 11:08:32;;;;;;;11.17;4.97;;;18.80;99.90;;;;;;5113540;28;20468;-71
2023/05/31 11:11:26;;;;;;;9.57;4.40;;;18.80;99.90;;;;;;5113170;28;20039;-70
2023/05/31 11:14:15;;;;;;;10.47;4.83;;;18.90;99.90;;;;;;5096057;28;20463;-71
2023/05/31 11:16:43;;;;;;;11.17;4.97;;;18.80;99.90;;;;;;5114450;28;20556;-70
2023/05/31 11:19:14;;;;;;;10.87;5.03;;;18.70;99.90;;;;;;5117493;28;20052;-72
2023/05/31 11:21:54;;;;;;;14.30;4.60;;;18.70;99.90;;;;;;5099089;28;20142;-72
2023/05/31 11:24:50;;;;;;;8.87;5.23;;;18.70;99.90;;;;;;5117856;28;20051;-71
2023/05/31 11:27:16;;;;;;;;;;;18.80;99.90;;;;;;5117916;28;20580;-72
2023/05/31 11:29:47;;;;;;;9.77;5.20;;;18.80;99.90;;;;;;5117430;28;19919;-72
2023/05/31 11:32:36;;;;;;;8.60;4.40;;;18.80;99.90;;;;;;5099062;28;20055;-71
2023/05/31 11:35:06;;;;;;;10.47;4.30;;;18.90;99.90;;;;;;5085593;28;20062;-72
2023/05/31 11:37:35;;;;;;;10.43;5.43;;;18.80;99.90;;;;;;5117316;28;20047;-72
2023/05/31 11:40:06;;;;;;;11.07;5.00;;;18.80;99.90;;;;;;5117041;28;20181;-72
2023/05/31 11:42:33;;;;;;;9.73;5.20;;;18.70;99.90;;;;;;5099290;28;20047;-72
2023/05/31 11:45:17;;;;;;;12.00;4.67;;;18.70;99.90;;;;;;5098971;28;20127;-72
2023/05/31 11:48:09;;;;;;;12.33;5.10;;;18.50;99.90;;;;;;5099091;28;20059;-72
2023/05/31 11:50:35;;;;;;;11.20;5.33;;;18.50;99.90;;;;;;5115048;28;20078;-72
2023/05/31 11:53:06;;;;;;;12.70;5.40;;;18.50;99.90;;;;;;5098212;28;20499;-73
2023/05/31 11:55:32;;;;;;;9.13;4.80;;;18.50;99.90;;;;;;5096632;28;20104;-69
2023/05/31 11:57:59;;;;;;;12.23;5.70;;;18.60;99.90;;;;;;5116071;28;20036;-70
2023/05/31 12:00:24;;;;;;;12.17;5.10;;;18.60;99.90;;;;;;5116508;28;20054;-73
2023/05/31 12:02:57;;;;;;;11.33;5.07;;;18.70;99.90;;;;;;5115842;28;20391;-72
2023/05/31 12:05:24;;;;;;;10.53;5.90;;;18.80;99.90;;;;;;5098194;28;20032;-71
2023/05/31 12:07:54;;;;;;;13.03;6.63;;;18.80;99.90;;;;;;5115708;28;20116;-71
2023/05/31 12:10:24;;;;;;;9.97;5.03;;;18.70;99.90;;;;;;5116420;28;20035;-70
2023/05/31 12:12:50;;;;;;;12.90;6.13;;;18.70;99.90;;;;;;5113641;28;20031;-69
2023/05/31 12:15:16;;;;;;;9.70;5.20;;;18.70;99.90;;;;;;5115757;28;20356;-70
2023/05/31 12:17:42;;;;;;;14.27;5.20;;;18.60;99.90;;;;;;5114823;28;20051;-70
2023/05/31 12:20:09;;;;;;;10.43;4.67;;;18.50;99.90;;;;;;5115146;28;20047;-69
2023/05/31 12:22:35;;;;;;;11.43;4.33;;;18.40;99.90;;;;;;5115211;28;20097;-71
2023/05/31 12:25:01;;;;;;;9.50;5.10;;;18.50;99.90;;;;;;5096254;28;20059;-71
2023/05/31 12:27:29;;;;;;;10.17;5.10;;;18.50;99.90;;;;;;5097317;28;20047;-71
2023/05/31 12:29:56;;;;;;;10.03;5.03;;;18.40;99.90;;;;;;5115353;28;20043;-71
2023/05/31 12:32:27;;;;;;;8.10;4.90;;;18.20;99.90;;;;;;5115964;28;20488;-71
2023/05/31 12:35:02;;;;;;;9.73;5.27;;;18.30;99.90;;;;;;5116398;28;20058;-70
2023/05/31 12:37:36;;;;;;;10.93;5.10;;;18.40;99.90;;;;;;5116282;28;20090;-71
2023/05/31 12:40:28;;;;;;;12.20;6.70;;;18.40;99.90;;;;;;5116006;28;20051;-71
2023/05/31 12:43:00;;;;;;;10.33;5.60;;;18.30;99.90;;;;;;5111048;28;20097;-72
2023/05/31 12:45:26;;;;;;;10.50;4.80;;;18.30;99.90;;;;;;5115953;28;20044;-71
2023/05/31 12:47:58;;;;;;;9.83;5.20;;;18.20;99.90;;;;;;5098071;28;20448;-71